PHNAX EDDL-EDDL
Flight info
| Callsign | PHNAX |
|---|---|
| Flight time | 0h 6m |
| Altitude | 1000 |
| Route | VFR TRAFFIC PATTERN |
| Aircraft | C152/L-S/L |
Departure
| Time | 2026-05-07 17:10 |
|---|---|
| Airport | Düsseldorf Airport (EDDL) |
Arrival
| Time | 2026-05-07 17:17 |
|---|---|
| Airport | Düsseldorf Airport (EDDL) |
| Time | Latitude | Longitude | Altitude | Speed | Heading |
|---|---|---|---|---|---|
| 2026-05-07 17:02 | 51.27622 | 6.75218 | 114 ft | 0 kts | 76° |
| 2026-05-07 17:08 | 51.27622 | 6.75219 | 114 ft | 1 kts | 66° |
| 2026-05-07 17:08 | 51.27682 | 6.75192 | 114 ft | 14 kts | 5° |
| 2026-05-07 17:08 | 51.27758 | 6.75246 | 114 ft | 11 kts | 51° |
| 2026-05-07 17:08 | 51.27801 | 6.75332 | 119 ft | 9 kts | 48° |
| 2026-05-07 17:09 | 51.27857 | 6.75334 | 116 ft | 11 kts | 342° |
| 2026-05-07 17:09 | 51.27964 | 6.75273 | 117 ft | 20 kts | 350° |
| 2026-05-07 17:09 | 51.28063 | 6.75395 | 120 ft | 24 kts | 55° |
| 2026-05-07 17:09 | 51.28262 | 6.75825 | 123 ft | 69 kts | 54° |
| 2026-05-07 17:10 | 51.28561 | 6.76447 | 323 ft | 67 kts | 50° |
| 2026-05-07 17:10 | 51.28875 | 6.77047 | 469 ft | 73 kts | 49° |
| 2026-05-07 17:10 | 51.29205 | 6.77651 | 648 ft | 71 kts | 46° |
| 2026-05-07 17:10 | 51.29284 | 6.78415 | 854 ft | 75 kts | 103° |
| 2026-05-07 17:11 | 51.28961 | 6.79073 | 1060 ft | 82 kts | 132° |
| 2026-05-07 17:11 | 51.28428 | 6.79669 | 1069 ft | 99 kts | 141° |
| 2026-05-07 17:11 | 51.27798 | 6.80238 | 976 ft | 112 kts | 166° |
| 2026-05-07 17:11 | 51.27029 | 6.79984 | 942 ft | 108 kts | 183° |
| 2026-05-07 17:12 | 51.26552 | 6.80674 | 1000 ft | 97 kts | 88° |
| 2026-05-07 17:12 | 51.27021 | 6.81091 | 868 ft | 106 kts | 337° |
| 2026-05-07 17:12 | 51.27295 | 6.80084 | 958 ft | 111 kts | 267° |
| 2026-05-07 17:12 | 51.26797 | 6.79207 | 930 ft | 119 kts | 192° |
| 2026-05-07 17:13 | 51.26144 | 6.79725 | 1017 ft | 103 kts | 114° |
| 2026-05-07 17:13 | 51.26336 | 6.80647 | 1012 ft | 96 kts | 25° |
| 2026-05-07 17:13 | 51.26918 | 6.80312 | 1001 ft | 104 kts | 300° |
| 2026-05-07 17:13 | 51.26993 | 6.79103 | 846 ft | 116 kts | 268° |
| 2026-05-07 17:14 | 51.26779 | 6.77865 | 742 ft | 117 kts | 250° |
| 2026-05-07 17:14 | 51.26423 | 6.76722 | 771 ft | 110 kts | 239° |
| 2026-05-07 17:14 | 51.26006 | 6.75752 | 743 ft | 108 kts | 232° |
| 2026-05-07 17:14 | 51.25512 | 6.74889 | 754 ft | 98 kts | 226° |
| 2026-05-07 17:15 | 51.25082 | 6.74209 | 795 ft | 82 kts | 225° |
| 2026-05-07 17:15 | 51.24977 | 6.73437 | 803 ft | 72 kts | 297° |
| 2026-05-07 17:15 | 51.25231 | 6.72845 | 795 ft | 58 kts | 341° |
| 2026-05-07 17:15 | 51.25626 | 6.72701 | 753 ft | 58 kts | 353° |
| 2026-05-07 17:16 | 51.26034 | 6.72547 | 714 ft | 58 kts | 350° |
| 2026-05-07 17:16 | 51.26475 | 6.72608 | 690 ft | 70 kts | 27° |
| 2026-05-07 17:16 | 51.26902 | 6.73132 | 576 ft | 81 kts | 45° |
| 2026-05-07 17:16 | 51.27241 | 6.73702 | 403 ft | 55 kts | 49° |
| 2026-05-07 17:17 | 51.27470 | 6.74152 | 333 ft | 50 kts | 50° |
| 2026-05-07 17:17 | 51.27680 | 6.74607 | 306 ft | 49 kts | 53° |
| 2026-05-07 17:17 | 51.27913 | 6.75098 | 234 ft | 60 kts | 51° |
| 2026-05-07 17:17 | 51.28168 | 6.75625 | 170 ft | 59 kts | 53° |
| 2026-05-07 17:18 | 51.28412 | 6.76121 | 132 ft | 55 kts | 52° |
| 2026-05-07 17:18 | 51.28627 | 6.76543 | 272 ft | 40 kts | 46° |
| 2026-05-07 17:18 | 51.28848 | 6.76819 | 325 ft | 41 kts | 55° |
| 2026-05-07 17:18 | 51.28761 | 6.77303 | 376 ft | 48 kts | 111° |
| 2026-05-07 17:19 | 51.28494 | 6.77762 | 426 ft | 59 kts | 135° |
| 2026-05-07 17:19 | 51.28145 | 6.78151 | 507 ft | 60 kts | 139° |
| 2026-05-07 17:19 | 51.27732 | 6.78423 | 632 ft | 77 kts | 178° |
| 2026-05-07 17:19 | 51.27244 | 6.78042 | 750 ft | 86 kts | 229° |
| 2026-05-07 17:20 | 51.26875 | 6.77206 | 765 ft | 101 kts | 236° |
| 2026-05-07 17:20 | 51.26496 | 6.76247 | 888 ft | 99 kts | 240° |
| 2026-05-07 17:20 | 51.26124 | 6.75285 | 952 ft | 101 kts | 240° |
| 2026-05-07 17:20 | 51.25752 | 6.74346 | 1092 ft | 99 kts | 237° |
| 2026-05-07 17:21 | 51.25374 | 6.73355 | 958 ft | 106 kts | 248° |
| 2026-05-07 17:21 | 51.25089 | 6.72329 | 919 ft | 96 kts | 249° |
| 2026-05-07 17:21 | 51.24809 | 6.71352 | 850 ft | 100 kts | 249° |
| 2026-05-07 17:21 | 51.24512 | 6.70375 | 898 ft | 92 kts | 262° |
| 2026-05-07 17:22 | 51.24735 | 6.69553 | 868 ft | 86 kts | 327° |
| 2026-05-07 17:22 | 51.25281 | 6.69358 | 834 ft | 80 kts | 12° |
| 2026-05-07 17:22 | 51.25594 | 6.69924 | 870 ft | 67 kts | 62° |
| 2026-05-07 17:22 | 51.25795 | 6.70592 | 862 ft | 72 kts | 58° |
| 2026-05-07 17:23 | 51.26104 | 6.71292 | 825 ft | 80 kts | 51° |
| 2026-05-07 17:23 | 51.26410 | 6.71983 | 775 ft | 80 kts | 52° |
| 2026-05-07 17:23 | 51.26703 | 6.72606 | 555 ft | 55 kts | 48° |
| 2026-05-07 17:23 | 51.26933 | 6.73030 | 502 ft | 49 kts | 45° |
| 2026-05-07 17:24 | 51.27152 | 6.73484 | 421 ft | 53 kts | 55° |
| 2026-05-07 17:24 | 51.27396 | 6.73963 | 373 ft | 57 kts | 50° |
| 2026-05-07 17:24 | 51.27625 | 6.74470 | 321 ft | 57 kts | 54° |
| 2026-05-07 17:24 | 51.27873 | 6.74992 | 237 ft | 60 kts | 54° |
| 2026-05-07 17:25 | 51.28127 | 6.75500 | 179 ft | 57 kts | 49° |
| 2026-05-07 17:25 | 51.28346 | 6.75979 | 147 ft | 49 kts | 54° |
| 2026-05-07 17:25 | 51.28547 | 6.76395 | 129 ft | 46 kts | 55° |
| 2026-05-07 17:25 | 51.28721 | 6.76776 | 122 ft | 41 kts | 60° |
| 2026-05-07 17:26 | 51.28856 | 6.77093 | 122 ft | 28 kts | 51° |
| 2026-05-07 17:26 | 51.28956 | 6.77291 | 123 ft | 20 kts | 54° |
| 2026-05-07 17:26 | 51.29020 | 6.77478 | 123 ft | 18 kts | 79° |
| 2026-05-07 17:26 | 51.28962 | 6.77621 | 123 ft | 7 kts | 143° |
| 2026-05-07 17:27 | 51.28901 | 6.77638 | 123 ft | 14 kts | 206° |
| 2026-05-07 17:27 | 51.28838 | 6.77508 | 123 ft | 16 kts | 231° |
| 2026-05-07 17:27 | 51.28768 | 6.77357 | 123 ft | 18 kts | 232° |
| 2026-05-07 17:27 | 51.28681 | 6.77214 | 124 ft | 18 kts | 227° |
| 2026-05-07 17:28 | 51.28605 | 6.77043 | 124 ft | 20 kts | 237° |
| 2026-05-07 17:28 | 51.28521 | 6.76865 | 122 ft | 17 kts | 231° |
| 2026-05-07 17:28 | 51.28511 | 6.76845 | 122 ft | 0 kts | 233° |
| 2026-05-07 17:28 | 51.28506 | 6.76830 | 121 ft | 8 kts | 239° |
| 2026-05-07 17:29 | 51.28462 | 6.76717 | 120 ft | 10 kts | 231° |
| 2026-05-07 17:29 | 51.28452 | 6.76696 | 120 ft | 0 kts | 231° |